Time;durP1;ratioP1;P1;durP2;ratioP2;P2;SDS_P1;SDS_P2;PMS_P1;PMS_P2;Temp;Humidity;BMP_temperature;BMP_pressure;BME280_temperature;BME280_humidity;BME280_pressure;Samples;Min_cycle;Max_cycle;Signal;HPM_P1;HPM_P2
2021/04/17 00:00:08;;;;;;;8.80;6.50;;;8.30;99.90;;;;;;5084612;28;20173;-77
2021/04/17 00:02:33;;;;;;;12.03;6.23;;;8.30;99.90;;;;;;5076194;28;20277;-76
2021/04/17 00:04:59;;;;;;;6.30;5.27;;;8.30;99.90;;;;;;5072560;28;20496;-76
2021/04/17 00:07:25;;;;;;;16.13;6.50;;;8.30;99.90;;;;;;5075251;28;20331;-77
2021/04/17 00:09:51;;;;;;;7.23;5.27;;;8.30;99.90;;;;;;5076798;28;20174;-77
2021/04/17 00:12:20;;;;;;;6.93;6.23;;;8.30;99.90;;;;;;5076346;28;20491;-77
2021/04/17 00:14:49;;;;;;;8.50;5.70;;;8.30;99.90;;;;;;5082866;28;20204;-77
2021/04/17 00:17:17;;;;;;;8.10;5.90;;;8.40;99.90;;;;;;5076333;28;20468;-77
2021/04/17 00:19:44;;;;;;;8.57;5.83;;;8.30;99.90;;;;;;5073717;28;20967;-77
2021/04/17 00:22:10;;;;;;;5.17;4.60;;;8.20;99.90;;;;;;5074236;28;20981;-77
2021/04/17 00:24:36;;;;;;;8.23;4.77;;;8.30;99.90;;;;;;5072349;28;20504;-77
2021/04/17 00:27:03;;;;;;;7.00;4.90;;;8.30;99.90;;;;;;5072997;28;20174;-77
2021/04/17 00:29:30;;;;;;;7.90;6.83;;;8.20;99.90;;;;;;5072627;28;20933;-77
2021/04/17 00:31:56;;;;;;;7.60;5.63;;;8.20;99.90;;;;;;5074691;28;20463;-77
2021/04/17 00:34:22;;;;;;;10.03;6.63;;;8.20;99.90;;;;;;5072612;28;20420;-77
2021/04/17 00:36:48;;;;;;;7.60;5.53;;;8.10;99.90;;;;;;5074596;28;20489;-77
2021/04/17 00:39:14;;;;;;;8.10;6.30;;;8.10;99.90;;;;;;5073897;28;20852;-77
2021/04/17 00:41:40;;;;;;;7.53;6.07;;;8.00;99.90;;;;;;5072934;28;20202;-76
2021/04/17 00:44:05;;;;;;;6.87;5.67;;;8.00;99.90;;;;;;5074222;28;20511;-77
2021/04/17 00:46:32;;;;;;;14.23;6.50;;;8.00;99.90;;;;;;5072703;28;20181;-76
2021/04/17 00:48:58;;;;;;;8.90;5.83;;;8.00;99.90;;;;;;5072658;28;20643;-77
2021/04/17 00:51:23;;;;;;;6.50;5.90;;;7.90;99.90;;;;;;5072451;28;20444;-76
2021/04/17 00:53:50;;;;;;;5.80;5.10;;;7.90;99.90;;;;;;5075110;28;20424;-77
2021/04/17 00:56:19;;;;;;;9.67;6.20;;;7.90;99.90;;;;;;5076200;28;20170;-77
2021/04/17 00:58:45;;;;;;;8.70;6.03;;;7.80;99.90;;;;;;5075860;28;20404;-77
2021/04/17 01:01:13;;;;;;;19.00;7.10;;;7.80;99.90;;;;;;5056891;28;20456;-77
2021/04/17 01:03:46;;;;;;;8.73;6.13;;;7.80;99.90;;;;;;5074920;28;20484;-78
2021/04/17 01:06:29;;;;;;;8.77;7.60;;;7.70;99.90;;;;;;5085838;28;20427;-76
2021/04/17 01:09:20;;;;;;;6.70;6.00;;;7.70;99.90;;;;;;5081081;28;20420;-77
2021/04/17 01:11:53;;;;;;;13.63;5.70;;;7.60;99.90;;;;;;5077685;28;20840;-78
2021/04/17 01:14:19;;;;;;;9.50;7.53;;;7.60;99.90;;;;;;5088608;28;20775;-78
2021/04/17 01:16:47;;;;;;;6.20;5.67;;;7.60;99.90;;;;;;5075893;28;20420;-77
2021/04/17 01:19:21;;;;;;;9.30;6.07;;;7.50;99.90;;;;;;5076325;28;20471;-76
2021/04/17 01:21:47;;;;;;;8.20;6.47;;;7.50;99.90;;;;;;5076014;28;20456;-76
2021/04/17 01:24:17;;;;;;;7.27;6.50;;;7.40;99.90;;;;;;5071971;28;20901;-76
2021/04/17 01:26:43;;;;;;;9.60;6.23;;;7.30;99.90;;;;;;5071192;28;20179;-76
2021/04/17 01:29:09;;;;;;;9.73;6.03;;;7.30;99.90;;;;;;5071232;28;20423;-76
2021/04/17 01:31:38;;;;;;;9.80;5.63;;;7.20;99.90;;;;;;5075227;28;20462;-76
2021/04/17 01:34:05;;;;;;;12.93;7.53;;;7.20;99.90;;;;;;5077171;28;20417;-77
2021/04/17 01:36:33;;;;;;;7.70;6.50;;;7.10;99.90;;;;;;5076054;28;20431;-77
2021/04/17 01:39:07;;;;;;;12.33;7.40;;;7.10;99.90;;;;;;5075759;28;20507;-77
2021/04/17 01:41:47;;;;;;;8.47;7.00;;;7.00;99.90;;;;;;5074776;28;21138;-77
2021/04/17 01:44:26;;;;;;;6.70;6.10;;;7.00;99.90;;;;;;5083962;28;20408;-77
2021/04/17 01:47:01;;;;;;;7.67;6.97;;;7.00;99.90;;;;;;5073580;28;20495;-76
2021/04/17 01:49:29;;;;;;;6.97;6.20;;;7.00;99.90;;;;;;5074190;28;20932;-76
2021/04/17 01:51:56;;;;;;;13.63;8.00;;;6.90;99.90;;;;;;5071638;28;20460;-76
2021/04/17 01:54:29;;;;;;;9.47;6.87;;;6.90;99.90;;;;;;5077066;28;20417;-76
2021/04/17 01:56:58;;;;;;;7.00;6.10;;;6.90;99.90;;;;;;5076419;28;20416;-76
2021/04/17 01:59:26;;;;;;;10.60;6.67;;;6.90;99.90;;;;;;5080025;28;20901;-76
2021/04/17 02:01:52;;;;;;;14.47;6.90;;;6.80;99.90;;;;;;5075944;28;20432;-77
2021/04/17 02:04:18;;;;;;;6.80;5.47;;;6.80;99.90;;;;;;5073610;28;20944;-76
2021/04/17 02:06:44;;;;;;;7.87;6.50;;;6.70;99.90;;;;;;5075639;28;20176;-76
2021/04/17 02:09:10;;;;;;;17.93;6.63;;;6.60;99.90;;;;;;5074733;28;20315;-76
2021/04/17 02:11:36;;;;;;;9.13;6.50;;;6.60;99.90;;;;;;5073051;28;20518;-76
2021/04/17 02:14:03;;;;;;;7.70;6.60;;;6.60;99.90;;;;;;5074727;28;20412;-76
2021/04/17 02:16:35;;;;;;;10.07;6.37;;;6.60;99.90;;;;;;5074792;28;20532;-76
2021/04/17 02:19:04;;;;;;;6.83;5.60;;;6.70;99.90;;;;;;5065052;28;20443;-76
2021/04/17 02:21:43;;;;;;;7.50;5.77;;;6.70;99.90;;;;;;5078408;28;21076;-75
2021/04/17 02:24:09;;;;;;;9.97;7.37;;;6.60;99.90;;;;;;5083426;28;20815;-76
2021/04/17 02:26:39;;;;;;;8.60;6.10;;;6.50;99.90;;;;;;5089584;28;20407;-77
2021/04/17 02:29:07;;;;;;;10.83;6.37;;;6.50;99.90;;;;;;5091201;28;20412;-77
2021/04/17 02:31:33;;;;;;;9.70;6.73;;;6.50;99.90;;;;;;5084023;28;20420;-77
2021/04/17 02:33:59;;;;;;;8.33;7.43;;;6.50;99.90;;;;;;5075418;28;20413;-77
2021/04/17 02:36:27;;;;;;;9.80;6.30;;;6.50;99.90;;;;;;5058369;28;20458;-77
2021/04/17 02:38:53;;;;;;;7.43;6.00;;;6.50;99.90;;;;;;5057562;28;20456;-76
2021/04/17 02:41:19;;;;;;;9.00;6.17;;;6.40;99.90;;;;;;5082029;28;20471;-75
2021/04/17 02:43:45;;;;;;;8.67;6.27;;;6.40;99.90;;;;;;5091499;28;20186;-77
2021/04/17 02:46:11;;;;;;;6.60;4.97;;;6.40;99.90;;;;;;5084942;28;20427;-77
2021/04/17 02:48:37;;;;;;;7.87;6.30;;;6.40;99.90;;;;;;5076676;28;20435;-76
2021/04/17 02:51:04;;;;;;;11.57;6.70;;;6.40;99.90;;;;;;5073563;28;20454;-76
2021/04/17 02:53:30;;;;;;;8.90;5.60;;;6.30;99.90;;;;;;5073744;28;20464;-76
2021/04/17 02:55:55;;;;;;;11.67;6.67;;;6.30;99.90;;;;;;5075390;28;20419;-77
2021/04/17 02:58:21;;;;;;;7.30;6.60;;;6.30;99.90;;;;;;5078097;28;20166;-78
2021/04/17 03:00:47;;;;;;;7.90;6.20;;;6.30;99.90;;;;;;5076204;28;20182;-78
2021/04/17 03:03:12;;;;;;;10.07;7.00;;;6.30;99.90;;;;;;5083998;28;20481;-78
2021/04/17 03:05:38;;;;;;;10.33;7.30;;;6.20;99.90;;;;;;5086137;28;20178;-76
2021/04/17 03:08:04;;;;;;;8.17;6.70;;;6.20;99.90;;;;;;5072842;28;20190;-75
2021/04/17 03:10:30;;;;;;;7.77;5.50;;;6.10;99.90;;;;;;5073556;28;20412;-75
2021/04/17 03:12:56;;;;;;;6.93;5.73;;;6.10;99.90;;;;;;5071725;28;20646;-76
2021/04/17 03:15:21;;;;;;;9.70;6.23;;;6.10;99.90;;;;;;5073585;28;20511;-76
2021/04/17 03:17:47;;;;;;;6.47;5.87;;;6.10;99.90;;;;;;5073288;28;20171;-76
2021/04/17 03:20:13;;;;;;;11.20;6.50;;;6.10;99.90;;;;;;5081640;28;20535;-76
2021/04/17 03:22:39;;;;;;;7.70;5.80;;;6.00;99.90;;;;;;5073134;28;20220;-76
2021/04/17 03:25:08;;;;;;;8.67;6.60;;;6.00;99.90;;;;;;5073452;28;20425;-75
2021/04/17 03:27:34;;;;;;;7.43;5.77;;;5.90;99.90;;;;;;5072953;28;20823;-76
2021/04/17 03:30:00;;;;;;;8.80;5.83;;;5.90;99.90;;;;;;5069482;28;20510;-76
2021/04/17 03:32:26;;;;;;;8.27;5.70;;;5.90;99.90;;;;;;5071765;28;20214;-75
2021/04/17 03:34:51;;;;;;;6.33;5.73;;;5.80;99.90;;;;;;5075493;28;20205;-77
2021/04/17 03:37:17;;;;;;;8.20;6.37;;;5.70;99.90;;;;;;5075972;28;20185;-77
2021/04/17 03:39:42;;;;;;;8.60;6.80;;;5.70;99.90;;;;;;5076038;28;20169;-77
2021/04/17 03:42:08;;;;;;;7.47;5.87;;;5.70;99.90;;;;;;5073079;28;20206;-77
2021/04/17 03:44:34;;;;;;;7.50;6.03;;;5.50;99.90;;;;;;5076541;28;20377;-77
2021/04/17 03:46:59;;;;;;;7.37;6.00;;;5.40;99.90;;;;;;5076355;28;20204;-77
2021/04/17 03:49:25;;;;;;;7.67;6.40;;;5.30;99.90;;;;;;5075796;28;20189;-76
2021/04/17 03:51:50;;;;;;;7.20;5.50;;;5.40;99.90;;;;;;5075441;28;20237;-76
2021/04/17 03:54:16;;;;;;;14.90;6.30;;;5.30;99.90;;;;;;5076299;28;20227;-77
2021/04/17 03:56:41;;;;;;;7.90;6.10;;;5.40;99.90;;;;;;5076307;28;20249;-77
2021/04/17 03:59:07;;;;;;;9.93;6.73;;;5.30;99.90;;;;;;5073793;28;20177;-77
2021/04/17 04:01:33;;;;;;;6.07;5.47;;;5.20;99.90;;;;;;5073630;28;20209;-77
2021/04/17 04:04:04;;;;;;;14.57;5.93;;;5.30;99.90;;;;;;5074655;28;20535;-76
2021/04/17 04:06:30;;;;;;;7.40;6.23;;;5.30;99.90;;;;;;5057432;28;20408;-77
2021/04/17 04:08:55;;;;;;;13.37;7.43;;;5.20;99.90;;;;;;5074725;28;20428;-76
2021/04/17 04:11:21;;;;;;;10.40;6.73;;;5.20;99.90;;;;;;5074980;28;20195;-76
2021/04/17 04:13:47;;;;;;;12.97;6.87;;;5.20;99.90;;;;;;5073702;28;20194;-78
2021/04/17 04:16:12;;;;;;;12.63;5.87;;;5.20;99.90;;;;;;5072687;28;20182;-77
2021/04/17 04:18:38;;;;;;;11.33;5.70;;;5.10;99.90;;;;;;5074050;28;20470;-76
2021/04/17 04:21:04;;;;;;;8.93;6.30;;;5.10;99.90;;;;;;5073254;28;20223;-76
2021/04/17 04:23:29;;;;;;;6.50;5.47;;;5.10;99.90;;;;;;5071944;28;20178;-77
2021/04/17 04:25:55;;;;;;;12.33;6.40;;;5.10;99.90;;;;;;5071356;28;20428;-75
2021/04/17 04:28:21;;;;;;;7.63;6.10;;;5.00;99.90;;;;;;5077300;28;20182;-77
2021/04/17 04:30:53;;;;;;;9.80;5.60;;;5.00;99.90;;;;;;5077669;28;21640;-76
2021/04/17 04:33:37;;;;;;;7.50;5.43;;;5.10;99.90;;;;;;5079326;28;20472;-76
2021/04/17 04:36:03;;;;;;;8.73;5.90;;;5.10;99.90;;;;;;5078021;28;20537;-78
2021/04/17 04:38:28;;;;;;;10.13;7.33;;;5.00;99.90;;;;;;5072688;28;20444;-76
2021/04/17 04:40:54;;;;;;;7.10;6.37;;;5.00;99.90;;;;;;5071222;28;20189;-77
2021/04/17 04:43:19;;;;;;;9.90;6.67;;;5.00;99.90;;;;;;5072594;28;20213;-78
2021/04/17 04:45:45;;;;;;;13.40;7.20;;;4.90;99.90;;;;;;5074388;28;20181;-78
2021/04/17 04:48:11;;;;;;;9.87;6.67;;;5.00;99.90;;;;;;5075351;28;20698;-78
2021/04/17 04:50:37;;;;;;;7.97;6.27;;;5.00;99.90;;;;;;5075589;28;20181;-78
2021/04/17 04:53:03;;;;;;;6.67;5.40;;;5.00;99.90;;;;;;5075345;28;20198;-78
2021/04/17 04:55:29;;;;;;;7.00;5.77;;;5.00;99.90;;;;;;5074876;28;20424;-77
2021/04/17 04:57:55;;;;;;;12.27;6.13;;;5.00;99.90;;;;;;5076051;28;20447;-77
2021/04/17 05:00:21;;;;;;;7.30;5.77;;;5.00;99.90;;;;;;5077310;28;20570;-77
2021/04/17 05:02:46;;;;;;;7.13;6.00;;;5.00;99.90;;;;;;5075806;28;20237;-76
2021/04/17 05:05:12;;;;;;;8.00;6.40;;;5.10;99.90;;;;;;5076899;28;20461;-77
2021/04/17 05:07:38;;;;;;;7.30;6.07;;;5.00;99.90;;;;;;5077138;28;20184;-77
2021/04/17 05:10:04;;;;;;;6.80;5.93;;;5.10;99.90;;;;;;5075373;28;20436;-77
2021/04/17 05:12:29;;;;;;;10.43;6.77;;;5.10;99.90;;;;;;5077156;28;20292;-77
2021/04/17 05:14:55;;;;;;;11.07;5.93;;;5.00;99.90;;;;;;5076254;28;20448;-77
2021/04/17 05:17:20;;;;;;;7.63;6.40;;;5.00;99.90;;;;;;5075433;28;20194;-78
2021/04/17 05:19:46;;;;;;;9.10;6.23;;;5.00;99.90;;;;;;5075974;28;20377;-77
2021/04/17 05:22:11;;;;;;;11.23;7.10;;;5.00;99.90;;;;;;5077137;28;20269;-77
2021/04/17 05:24:38;;;;;;;6.63;5.93;;;5.00;99.90;;;;;;5076776;28;20205;-77
2021/04/17 05:27:04;;;;;;;8.27;6.00;;;5.10;99.90;;;;;;5076189;28;20210;-78
2021/04/17 05:29:30;;;;;;;10.60;6.80;;;5.10;99.90;;;;;;5079085;28;20411;-78
2021/04/17 05:31:55;;;;;;;6.63;5.77;;;5.10;99.90;;;;;;5077983;28;20451;-76
2021/04/17 05:34:21;;;;;;;9.43;6.77;;;5.10;99.90;;;;;;5080392;28;20170;-78
2021/04/17 05:36:47;;;;;;;9.57;5.43;;;5.20;99.90;;;;;;5079312;28;20245;-78
2021/04/17 05:39:13;;;;;;;11.67;6.80;;;5.40;99.90;;;;;;5079017;28;20609;-74
2021/04/17 05:41:38;;;;;;;16.13;6.90;;;5.80;99.90;;;;;;5079354;28;20217;-78
2021/04/17 05:44:10;;;;;;;18.03;6.00;;;6.20;99.90;;;;;;5079053;28;20835;-77
2021/04/17 05:46:40;;;;;;;9.90;6.20;;;6.60;99.90;;;;;;5075291;28;20216;-77
2021/04/17 05:49:06;;;;;;;9.20;5.60;;;7.00;99.90;;;;;;5078233;28;20404;-78
2021/04/17 05:51:33;;;;;;;8.37;6.77;;;7.40;99.90;;;;;;5078911;28;20485;-79
2021/04/17 05:53:59;;;;;;;8.03;5.20;;;7.90;99.90;;;;;;5077832;28;20417;-77
2021/04/17 05:56:25;;;;;;;9.47;5.43;;;8.40;99.90;;;;;;5074911;28;20420;-78
2021/04/17 05:58:50;;;;;;;10.97;5.53;;;9.00;99.90;;;;;;5074255;28;20416;-77
2021/04/17 06:01:16;;;;;;;7.90;5.50;;;9.30;99.90;;;;;;5073918;28;20327;-78
2021/04/17 06:03:41;;;;;;;7.47;5.20;;;9.80;99.90;;;;;;5074508;28;20256;-77
2021/04/17 06:06:06;;;;;;;6.77;5.27;;;10.50;99.90;;;;;;5073577;28;20220;-77
2021/04/17 06:08:32;;;;;;;6.80;5.30;;;11.20;99.90;;;;;;5073491;28;20279;-78
2021/04/17 06:10:58;;;;;;;6.10;4.60;;;11.50;99.90;;;;;;5078568;28;20197;-78
2021/04/17 06:13:23;;;;;;;7.07;4.40;;;12.00;99.90;;;;;;5078672;28;20313;-79
2021/04/17 06:15:49;;;;;;;7.17;4.20;;;12.30;99.90;;;;;;5078679;28;20177;-79
2021/04/17 06:18:14;;;;;;;7.03;4.90;;;13.00;99.90;;;;;;5078780;28;20218;-80
2021/04/17 06:20:41;;;;;;;6.07;4.83;;;13.80;99.90;;;;;;5080031;28;20173;-78
2021/04/17 06:23:06;;;;;;;7.30;5.00;;;14.10;99.90;;;;;;5077199;28;20206;-78
2021/04/17 06:25:32;;;;;;;5.67;4.80;;;14.20;99.90;;;;;;5079023;28;20404;-80
2021/04/17 06:27:57;;;;;;;6.40;4.90;;;14.70;99.90;;;;;;5095226;28;20167;-79
2021/04/17 06:30:23;;;;;;;5.93;4.53;;;14.80;99.90;;;;;;5094876;28;20226;-80
2021/04/17 06:32:49;;;;;;;6.83;6.13;;;14.20;99.90;;;;;;5094567;28;20678;-77
2021/04/17 06:35:15;;;;;;;5.70;4.80;;;13.80;99.90;;;;;;5078124;28;20635;-79
2021/04/17 06:37:40;;;;;;;7.07;5.40;;;13.30;99.90;;;;;;5077405;28;20420;-80
2021/04/17 06:40:06;;;;;;;10.27;4.93;;;13.20;99.90;;;;;;5075582;28;20190;-79
2021/04/17 06:42:36;;;;;;;5.83;5.13;;;13.50;99.90;;;;;;5075642;28;20280;-78
2021/04/17 06:45:02;;;;;;;8.30;5.20;;;14.30;99.90;;;;;;5073307;28;20469;-78
2021/04/17 06:47:28;;;;;;;7.63;5.43;;;15.10;99.90;;;;;;5075757;28;20516;-78
2021/04/17 06:49:54;;;;;;;9.50;5.97;;;15.90;99.90;;;;;;5073166;28;20488;-78
2021/04/17 06:52:21;;;;;;;5.83;4.70;;;16.40;99.60;;;;;;5069880;28;20202;-78
2021/04/17 06:54:49;;;;;;;5.77;5.27;;;16.60;97.80;;;;;;5086375;28;20427;-79
2021/04/17 06:57:14;;;;;;;8.13;5.20;;;16.80;94.30;;;;;;5094154;28;20450;-79
2021/04/17 06:59:42;;;;;;;8.07;5.80;;;17.00;91.50;;;;;;5096535;28;20892;-78
2021/04/17 07:02:15;;;;;;;11.00;5.90;;;17.10;90.60;;;;;;5092288;28;20288;-79
2021/04/17 07:04:42;;;;;;;9.43;4.90;;;17.00;88.10;;;;;;5067438;28;20431;-79
2021/04/17 07:07:07;;;;;;;5.77;5.27;;;17.60;86.40;;;;;;5077669;28;20772;-80
2021/04/17 07:09:33;;;;;;;6.67;5.80;;;17.60;83.20;;;;;;5092649;28;20491;-80
2021/04/17 07:11:59;;;;;;;5.83;5.13;;;17.70;82.30;;;;;;5093347;28;20198;-78
2021/04/17 07:14:25;;;;;;;6.90;5.60;;;17.70;80.00;;;;;;5085752;28;20177;-77
2021/04/17 07:17:09;;;;;;;10.03;5.10;;;17.70;78.50;;;;;;5091089;28;20178;-79
2021/04/17 07:19:54;;;;;;;5.47;4.90;;;18.00;75.80;;;;;;5079384;28;20427;-78
2021/04/17 07:22:25;;;;;;;5.63;5.03;;;18.00;75.20;;;;;;5089578;28;20555;-79
2021/04/17 07:24:53;;;;;;;7.00;5.43;;;18.30;74.30;;;;;;5067759;28;20432;-80
2021/04/17 07:27:40;;;;;;;7.77;5.13;;;18.60;74.10;;;;;;5093483;28;20452;-80
2021/04/17 07:30:30;;;;;;;6.17;5.27;;;18.90;71.00;;;;;;5094789;28;20427;-81
2021/04/17 07:33:07;;;;;;;7.10;5.67;;;19.30;69.10;;;;;;5086967;28;20550;-80
2021/04/17 07:35:35;;;;;;;6.40;5.20;;;19.60;66.90;;;;;;5094149;28;20834;-80
2021/04/17 07:38:33;;;;;;;4.90;4.37;;;19.40;64.80;;;;;;5094574;28;20427;-80
2021/04/17 07:41:01;;;;;;;7.00;5.50;;;19.20;63.80;;;;;;5091471;28;20504;-79
2021/04/17 07:43:49;;;;;;;8.40;5.20;;;19.30;64.00;;;;;;5078236;28;20781;-79
2021/04/17 07:46:16;;;;;;;9.63;5.50;;;19.10;64.90;;;;;;5080697;28;20427;-79
2021/04/17 07:48:43;;;;;;;6.63;5.80;;;19.60;62.60;;;;;;5074021;28;20424;-79
2021/04/17 07:51:09;;;;;;;8.33;5.20;;;19.00;61.70;;;;;;5073142;28;20420;-79
2021/04/17 07:53:39;;;;;;;6.40;4.40;;;19.60;63.20;;;;;;5071869;28;20542;-78
2021/04/17 07:56:25;;;;;;;9.40;4.87;;;20.00;61.50;;;;;;5073133;28;20796;-78
2021/04/17 07:59:07;;;;;;;9.53;5.33;;;20.80;60.00;;;;;;5072762;28;20421;-78
2021/04/17 08:01:35;;;;;;;6.93;5.47;;;19.50;59.00;;;;;;5071357;28;20443;-77
2021/04/17 08:04:02;;;;;;;7.70;4.43;;;19.40;59.80;;;;;;5073980;28;20717;-79
2021/04/17 08:06:29;;;;;;;7.50;5.27;;;19.50;59.80;;;;;;5075309;28;20458;-79
2021/04/17 08:08:59;;;;;;;8.97;5.00;;;19.50;59.80;;;;;;5075693;28;20454;-78
2021/04/17 08:11:28;;;;;;;6.60;5.33;;;19.50;59.90;;;;;;5074012;28;20957;-79
2021/04/17 08:13:55;;;;;;;9.00;5.30;;;19.60;59.60;;;;;;5074282;28;20456;-79
2021/04/17 08:16:21;;;;;;;6.33;4.50;;;19.80;58.80;;;;;;5075872;28;20408;-80
2021/04/17 08:18:47;;;;;;;11.50;5.70;;;20.10;58.40;;;;;;5075408;28;20409;-79
2021/04/17 08:21:16;;;;;;;7.50;5.30;;;20.20;57.50;;;;;;5075611;28;20194;-79
2021/04/17 08:23:47;;;;;;;7.73;5.37;;;20.60;56.20;;;;;;5074801;28;20170;-79
2021/04/17 08:26:13;;;;;;;7.57;4.60;;;20.70;56.60;;;;;;5072499;28;20404;-78
2021/04/17 08:28:44;;;;;;;10.40;6.20;;;20.50;54.40;;;;;;5072313;28;20428;-77
2021/04/17 08:31:23;;;;;;;41.60;36.60;;;20.40;53.60;;;;;;5071089;28;20447;-77
2021/04/17 08:34:08;;;;;;;9.80;6.20;;;20.10;52.80;;;;;;5078805;28;20507;-77
2021/04/17 08:36:36;;;;;;;8.30;4.10;;;20.20;53.80;;;;;;5081695;28;20435;-76
2021/04/17 08:39:03;;;;;;;6.00;4.80;;;20.30;52.10;;;;;;5073822;28;20428;-76
2021/04/17 08:41:40;;;;;;;5.37;4.37;;;20.60;53.50;;;;;;5084690;28;20494;-76
2021/04/17 08:44:24;;;;;;;8.43;3.90;;;20.50;52.60;;;;;;5086323;28;20452;-76
2021/04/17 08:46:50;;;;;;;8.13;4.50;;;19.90;51.40;;;;;;5090534;28;20463;-75
2021/04/17 08:49:24;;;;;;;7.63;4.37;;;20.00;52.50;;;;;;5086880;28;20455;-75
2021/04/17 08:51:50;;;;;;;5.67;3.97;;;19.90;53.60;;;;;;5078079;28;20245;-76
2021/04/17 08:54:19;;;;;;;6.00;3.83;;;20.20;52.80;;;;;;5073766;28;20504;-76
2021/04/17 08:57:06;;;;;;;6.20;4.20;;;20.50;52.00;;;;;;5066714;28;20488;-76
2021/04/17 08:59:35;;;;;;;8.93;7.43;;;20.40;50.40;;;;;;5073246;28;20431;-76
2021/04/17 09:02:05;;;;;;;6.87;4.13;;;20.50;51.80;;;;;;5071212;28;20458;-76
2021/04/17 09:04:33;;;;;;;9.43;4.37;;;20.40;50.20;;;;;;5072871;28;20464;-76
2021/04/17 09:06:59;;;;;;;8.40;4.93;;;20.70;51.00;;;;;;5071313;28;20421;-76
2021/04/17 09:09:29;;;;;;;5.13;4.07;;;20.70;50.60;;;;;;5071570;28;20466;-76
2021/04/17 09:12:14;;;;;;;4.83;4.23;;;20.20;48.70;;;;;;5071672;28;20287;-76
2021/04/17 09:14:53;;;;;;;5.30;4.27;;;20.00;50.30;;;;;;5071791;28;20404;-76
2021/04/17 09:17:38;;;;;;;5.97;4.33;;;20.10;50.50;;;;;;5071091;28;20443;-76
2021/04/17 09:20:06;;;;;;;7.13;4.13;;;19.80;50.90;;;;;;5069565;28;20444;-75
2021/04/17 09:22:32;;;;;;;4.90;4.37;;;19.30;50.40;;;;;;5071860;28;20901;-75
2021/04/17 09:25:05;;;;;;;7.73;5.60;;;19.50;51.20;;;;;;5070876;28;20416;-75
2021/04/17 09:27:50;;;;;;;5.90;4.47;;;19.50;50.70;;;;;;5071723;28;20397;-75
2021/04/17 09:30:19;;;;;;;6.00;4.70;;;19.80;52.00;;;;;;5070218;28;20438;-75
2021/04/17 09:32:48;;;;;;;6.17;4.10;;;20.00;51.50;;;;;;5071041;28;20589;-76
2021/04/17 09:35:15;;;;;;;5.43;4.80;;;19.90;50.40;;;;;;5070936;28;20432;-76
2021/04/17 09:37:42;;;;;;;5.67;4.23;;;19.80;50.40;;;;;;5081001;28;20415;-75
2021/04/17 09:40:09;;;;;;;6.13;4.50;;;20.30;50.30;;;;;;5080176;28;20435;-75
2021/04/17 09:42:36;;;;;;;8.43;4.50;;;20.20;49.90;;;;;;5079906;28;20512;-76
2021/04/17 09:45:06;;;;;;;5.90;3.90;;;19.80;50.30;;;;;;5077226;28;20417;-76
2021/04/17 09:47:32;;;;;;;6.20;4.70;;;19.70;50.10;;;;;;5071539;28;20421;-76
2021/04/17 09:49:58;;;;;;;5.70;4.20;;;19.80;51.30;;;;;;5079630;28;20412;-76
2021/04/17 09:52:25;;;;;;;6.07;4.13;;;19.30;50.40;;;;;;5066244;28;20455;-75
2021/04/17 09:55:04;;;;;;;7.87;4.80;;;19.60;51.50;;;;;;5083236;28;20642;-76
2021/04/17 09:57:30;;;;;;;7.90;4.30;;;19.90;51.40;;;;;;5082098;28;20485;-76
2021/04/17 09:59:57;;;;;;;5.10;4.70;;;20.40;51.60;;;;;;5087640;28;20420;-75
2021/04/17 10:02:38;;;;;;;7.10;4.20;;;20.20;50.20;;;;;;5071030;28;20448;-75
2021/04/17 10:05:04;;;;;;;7.57;5.70;;;19.80;49.20;;;;;;5076651;28;20569;-77
2021/04/17 10:07:50;;;;;;;6.93;4.83;;;19.40;50.20;;;;;;5081350;28;20507;-75
2021/04/17 10:10:15;;;;;;;5.87;5.13;;;19.40;50.60;;;;;;5074429;28;20416;-76
2021/04/17 10:12:48;;;;;;;7.80;4.90;;;18.70;51.00;;;;;;5072466;28;20804;-76
2021/04/17 10:15:26;;;;;;;12.53;4.93;;;18.30;50.90;;;;;;5074949;28;20170;-76
2021/04/17 10:18:01;;;;;;;7.00;4.07;;;18.40;51.30;;;;;;5070162;28;20549;-75
2021/04/17 10:20:27;;;;;;;7.80;4.73;;;18.00;52.00;;;;;;5079618;28;20398;-76
2021/04/17 10:22:54;;;;;;;4.67;4.17;;;18.10;52.40;;;;;;5093907;28;20940;-75
2021/04/17 10:25:37;;;;;;;5.00;4.50;;;17.90;52.10;;;;;;5093857;28;20403;-76
2021/04/17 10:28:22;;;;;;;5.97;4.20;;;18.00;52.60;;;;;;5079782;28;20420;-76
2021/04/17 10:30:52;;;;;;;8.73;5.20;;;18.00;53.00;;;;;;5074474;28;20421;-76
2021/04/17 10:33:24;;;;;;;10.63;4.77;;;18.40;54.40;;;;;;5073082;28;20847;-77
2021/04/17 10:35:51;;;;;;;8.23;5.00;;;18.80;53.20;;;;;;5073344;28;20466;-77
2021/04/17 10:38:23;;;;;;;5.93;4.60;;;19.00;54.50;;;;;;5074528;28;20420;-77
2021/04/17 10:40:49;;;;;;;9.60;4.23;;;19.20;52.90;;;;;;5073978;28;20425;-76
2021/04/17 10:43:18;;;;;;;7.00;5.10;;;19.90;52.70;;;;;;5074223;28;20462;-76
2021/04/17 10:45:45;;;;;;;6.50;5.87;;;20.50;51.70;;;;;;5074425;28;20277;-77
2021/04/17 10:48:15;;;;;;;6.70;4.37;;;20.60;50.40;;;;;;5074135;28;20458;-77
2021/04/17 10:51:00;;;;;;;5.37;4.20;;;20.60;49.60;;;;;;5074070;28;20442;-76
2021/04/17 10:53:31;;;;;;;4.13;3.67;;;20.50;47.50;;;;;;5072177;28;20456;-76
2021/04/17 10:56:00;;;;;;;4.83;4.37;;;20.70;47.00;;;;;;5074503;28;20404;-76
2021/04/17 10:58:30;;;;;;;4.30;3.77;;;20.60;47.20;;;;;;5073869;28;20423;-76
2021/04/17 11:01:05;;;;;;;6.63;4.40;;;20.40;46.90;;;;;;5073794;28;20445;-76
2021/04/17 11:03:42;;;;;;;6.77;3.97;;;20.40;47.60;;;;;;5072258;28;20435;-76
2021/04/17 11:06:21;;;;;;;5.53;3.87;;;20.60;46.90;;;;;;5074010;28;20396;-76
2021/04/17 11:08:48;;;;;;;5.10;4.60;;;20.90;45.50;;;;;;5072098;28;20431;-76
2021/04/17 11:11:20;;;;;;;4.50;3.90;;;20.70;44.20;;;;;;5073336;28;20519;-77
2021/04/17 11:13:53;;;;;;;4.63;4.23;;;20.60;45.60;;;;;;5072422;28;20491;-77
2021/04/17 11:16:37;;;;;;;8.30;4.80;;;21.20;45.60;;;;;;5071439;28;20393;-76
2021/04/17 11:19:03;;;;;;;4.50;3.90;;;21.20;46.00;;;;;;5068568;28;20439;-76
2021/04/17 11:21:29;;;;;;;5.30;4.07;;;20.60;45.40;;;;;;5084105;28;20439;-76
2021/04/17 11:24:04;;;;;;;7.03;5.03;;;20.70;45.40;;;;;;5084073;28;20464;-76
2021/04/17 11:26:33;;;;;;;8.50;4.57;;;20.50;46.30;;;;;;5080210;28;20416;-76
2021/04/17 11:29:04;;;;;;;7.90;5.40;;;20.90;46.50;;;;;;5082735;28;20427;-77
2021/04/17 11:31:34;;;;;;;5.43;5.03;;;20.50;45.60;;;;;;5076038;28;20545;-77
2021/04/17 11:34:02;;;;;;;8.07;5.50;;;20.80;47.40;;;;;;5078326;28;20522;-76
2021/04/17 11:36:31;;;;;;;8.80;4.43;;;21.10;46.50;;;;;;5073212;28;20937;-77
2021/04/17 11:38:57;;;;;;;6.60;4.57;;;21.10;45.20;;;;;;5072821;28;20740;-77
2021/04/17 11:41:24;;;;;;;10.87;4.60;;;20.90;46.10;;;;;;5082691;28;20859;-77
2021/04/17 11:43:49;;;;;;;6.10;5.23;;;20.70;45.50;;;;;;5073144;28;20432;-74
2021/04/17 11:46:16;;;;;;;7.13;5.50;;;20.70;46.50;;;;;;5075124;28;20393;-77
2021/04/17 11:48:45;;;;;;;6.00;5.37;;;20.50;44.70;;;;;;5074103;28;20183;-77
2021/04/17 11:51:11;;;;;;;4.93;4.43;;;20.00;46.20;;;;;;5084542;28;20605;-77
2021/04/17 11:53:37;;;;;;;8.27;5.20;;;20.00;46.40;;;;;;5074674;28;20459;-76
2021/04/17 11:56:04;;;;;;;6.43;4.70;;;20.10;47.10;;;;;;5081289;28;20408;-76
2021/04/17 11:58:30;;;;;;;5.40;4.43;;;20.20;47.80;;;;;;5082770;28;20466;-77
2021/04/17 12:00:56;;;;;;;5.20;4.70;;;19.80;47.60;;;;;;5082145;28;20460;-78
2021/04/17 12:03:22;;;;;;;7.07;4.90;;;19.70;48.00;;;;;;5075995;28;20235;-76
2021/04/17 12:05:49;;;;;;;5.53;4.07;;;19.50;48.60;;;;;;5078698;28;20434;-76
2021/04/17 12:08:15;;;;;;;13.40;4.77;;;19.40;49.30;;;;;;5089160;28;20499;-76
2021/04/17 12:10:40;;;;;;;5.00;4.20;;;19.30;49.00;;;;;;5095993;28;20500;-76
2021/04/17 12:13:06;;;;;;;11.17;5.80;;;19.40;49.10;;;;;;5089564;28;20221;-76
2021/04/17 12:15:31;;;;;;;4.70;4.00;;;19.50;49.90;;;;;;5090948;28;20185;-76
2021/04/17 12:17:57;;;;;;;6.93;5.07;;;19.30;48.90;;;;;;5090746;28;20226;-76
2021/04/17 12:20:23;;;;;;;8.33;5.50;;;19.00;49.50;;;;;;5090844;28;20394;-76
2021/04/17 12:22:48;;;;;;;10.03;5.50;;;19.00;50.70;;;;;;5090505;28;20655;-76
2021/04/17 12:25:14;;;;;;;6.40;4.80;;;18.60;51.70;;;;;;5068859;28;20183;-76
2021/04/17 12:27:39;;;;;;;7.43;5.50;;;18.10;53.40;;;;;;5072420;28;20192;-76
2021/04/17 12:30:08;;;;;;;6.23;4.57;;;17.80;54.00;;;;;;5075519;28;20182;-76
2021/04/17 12:32:34;;;;;;;6.60;5.53;;;17.70;54.30;;;;;;5080901;28;20232;-77
2021/04/17 12:34:59;;;;;;;5.93;5.20;;;17.40;53.50;;;;;;5071345;28;20423;-77
2021/04/17 12:37:25;;;;;;;7.73;4.50;;;17.20;52.50;;;;;;5068219;28;20659;-76
2021/04/17 12:39:51;;;;;;;7.00;4.70;;;16.80;53.40;;;;;;5074417;28;20648;-76
2021/04/17 12:42:16;;;;;;;7.10;4.80;;;16.80;53.40;;;;;;5070601;28;20288;-76
2021/04/17 12:44:42;;;;;;;5.63;4.13;;;16.60;52.60;;;;;;5077484;28;20266;-76
2021/04/17 12:47:08;;;;;;;5.50;4.60;;;16.70;53.20;;;;;;5077148;28;20650;-77
2021/04/17 12:49:34;;;;;;;9.87;5.50;;;16.60;54.20;;;;;;5076041;28;20443;-76
2021/04/17 12:52:00;;;;;;;9.00;7.50;;;16.50;54.70;;;;;;5074824;28;20300;-77
2021/04/17 12:54:25;;;;;;;5.63;5.10;;;16.40;55.20;;;;;;5079347;28;20438;-77
2021/04/17 12:56:51;;;;;;;10.43;4.90;;;16.50;54.00;;;;;;5088593;28;20166;-77